createdAt,value
2023-02-08T00:01:27.050Z,103825.59
2023-02-08T00:04:13.853Z,103770.06
2023-02-08T00:07:00.671Z,103824.94
2023-02-08T00:09:47.556Z,103818.25
2023-02-08T00:12:34.777Z,103815.88
2023-02-08T00:15:21.766Z,103797.75
2023-02-08T00:18:09.832Z,103800.41
2023-02-08T00:20:57.415Z,103800.88
2023-02-08T00:23:44.273Z,103805.06
2023-02-08T00:26:31.184Z,103807.25
2023-02-08T00:29:18.126Z,103800.09
2023-02-08T00:32:05.213Z,103807.94
2023-02-08T00:34:53.093Z,103805.44
2023-02-08T00:37:39.977Z,103803.81
2023-02-08T00:40:27.776Z,103798.88
2023-02-08T00:43:14.469Z,103822.97
2023-02-08T00:46:02.550Z,103816.78
2023-02-08T00:48:49.680Z,103819.47
2023-02-08T00:51:37.850Z,103804.44
2023-02-08T00:54:24.780Z,103805.56
2023-02-08T00:57:11.768Z,103808.50
2023-02-08T00:59:58.208Z,103817.47
2023-02-08T01:02:44.942Z,103816.78
2023-02-08T01:05:31.856Z,103816.78
2023-02-08T01:08:21.415Z,103820.34
2023-02-08T01:11:10.743Z,103825.91
2023-02-08T01:13:58.646Z,103826.00
2023-02-08T01:16:45.671Z,103824.00
2023-02-08T01:19:33.857Z,103827.53
2023-02-08T01:22:23.085Z,103823.03
2023-02-08T01:25:11.332Z,103821.03
2023-02-08T01:27:57.961Z,103822.25
2023-02-08T01:30:44.731Z,103813.50
2023-02-08T01:33:31.352Z,103813.75
2023-02-08T01:36:20.112Z,103814.13
2023-02-08T01:39:08.723Z,103666.72
2023-02-08T01:41:56.608Z,103811.84
2023-02-08T01:45:30.044Z,103818.16
2023-02-08T01:48:21.362Z,103819.22
2023-02-08T01:51:12.214Z,103820.38
2023-02-08T01:54:01.845Z,103818.03
2023-02-08T01:56:49.897Z,103821.13
2023-02-08T01:59:43.091Z,103823.59
2023-02-08T02:02:30.280Z,103825.25
2023-02-08T02:05:18.658Z,103818.38
2023-02-08T02:08:06.962Z,103817.25
2023-02-08T02:10:53.839Z,103811.97
2023-02-08T02:13:41.461Z,103809.84
2023-02-08T02:16:29.792Z,103811.53
2023-02-08T02:19:27.591Z,103809.72
2023-02-08T02:22:40.933Z,103802.38
2023-02-08T02:25:59.436Z,103802.78
2023-02-08T02:29:23.589Z,103801.94
2023-02-08T02:32:21.041Z,103802.66
2023-02-08T02:35:20.346Z,103803.81
2023-02-08T02:38:15.587Z,103796.66
2023-02-08T02:41:10.485Z,103797.72
2023-02-08T02:44:00.326Z,103802.84
2023-02-08T02:46:54.999Z,103811.41
2023-02-08T02:49:51.704Z,103809.16
2023-02-08T02:52:43.913Z,103813.78
2023-02-08T02:55:34.085Z,103817.06
2023-02-08T02:58:23.039Z,103819.78
2023-02-08T03:01:09.678Z,103821.13
2023-02-08T03:03:56.770Z,103817.31
2023-02-08T03:06:59.505Z,103821.44
2023-02-08T03:10:03.080Z,103806.56
2023-02-08T03:12:59.568Z,103810.63
2023-02-08T03:15:59.512Z,103815.34
2023-02-08T03:19:00.519Z,103820.13
2023-02-08T03:21:56.117Z,103816.94
2023-02-08T03:24:51.173Z,103829.69
2023-02-08T03:27:46.084Z,103822.66
2023-02-08T03:30:45.411Z,103825.72
2023-02-08T03:33:36.288Z,103826.44
2023-02-08T03:36:28.673Z,103825.69
2023-02-08T03:39:20.966Z,103829.56
2023-02-08T03:42:15.585Z,103823.84
2023-02-08T03:45:06.810Z,103832.41
2023-02-08T03:47:58.243Z,103806.84
2023-02-08T03:50:50.388Z,103829.03
2023-02-08T03:53:40.635Z,103828.56
2023-02-08T03:56:37.639Z,103831.63
2023-02-08T03:59:29.401Z,103825.56
2023-02-08T04:02:21.312Z,103832.31
2023-02-08T04:05:09.162Z,103826.44
2023-02-08T04:07:55.723Z,103827.81
2023-02-08T04:10:42.877Z,103820.81
2023-02-08T04:13:31.363Z,103825.13
2023-02-08T04:16:18.028Z,103829.63
2023-02-08T04:19:04.833Z,103827.03
2023-02-08T04:21:51.757Z,103832.00
2023-02-08T04:24:38.292Z,103825.56
2023-02-08T04:27:24.967Z,103827.03
2023-02-08T04:30:14.378Z,103819.03
2023-02-08T04:33:01.136Z,103827.13
2023-02-08T04:35:47.827Z,103829.16
2023-02-08T04:38:34.795Z,103830.84
2023-02-08T04:41:21.682Z,103826.00
2023-02-08T04:44:08.305Z,103829.16
2023-02-08T04:46:56.451Z,103813.50
2023-02-08T04:49:43.330Z,103821.94
2023-02-08T04:52:30.214Z,103826.47
2023-02-08T04:55:16.953Z,103821.94
2023-02-08T04:58:03.987Z,103823.41
2023-02-08T05:00:50.878Z,103817.09
2023-02-08T05:03:38.816Z,103822.94
2023-02-08T05:06:25.532Z,103825.66
2023-02-08T05:09:12.221Z,103827.00
2023-02-08T05:11:58.920Z,103823.50
2023-02-08T05:14:45.912Z,103820.81
2023-02-08T05:17:32.649Z,103821.47
2023-02-08T05:20:21.687Z,103824.06
2023-02-08T05:23:08.245Z,103821.13
2023-02-08T05:25:55.070Z,103816.53
2023-02-08T05:28:41.757Z,103821.63
2023-02-08T05:31:28.653Z,103816.53
2023-02-08T05:34:15.600Z,103824.53
2023-02-08T05:37:03.784Z,103823.97
2023-02-08T05:39:50.542Z,103821.84
2023-02-08T05:42:37.291Z,103828.25
2023-02-08T05:45:24.107Z,103833.66
2023-02-08T05:48:10.920Z,103843.56
2023-02-08T05:50:58.155Z,103833.41
2023-02-08T05:53:45.859Z,103833.53
2023-02-08T05:56:32.980Z,103837.25
2023-02-08T05:59:19.633Z,103844.47
2023-02-08T06:02:06.462Z,103845.59
2023-02-08T06:04:53.213Z,103847.75
2023-02-08T06:07:40.150Z,103851.44
2023-02-08T06:10:28.410Z,103857.00
2023-02-08T06:13:16.011Z,103856.53
2023-02-08T06:16:02.826Z,103861.94
2023-02-08T06:18:49.600Z,103865.91
2023-02-08T06:21:36.389Z,103867.81
2023-02-08T06:24:23.164Z,103866.00
2023-02-08T06:27:11.528Z,103857.09
2023-02-08T06:29:58.411Z,103869.03
2023-02-08T06:32:45.180Z,103857.47
2023-02-08T06:35:32.861Z,103858.78
2023-02-08T06:38:19.543Z,103865.31
2023-02-08T06:41:06.732Z,103866.22
2023-02-08T06:43:54.536Z,103867.22
2023-02-08T06:46:41.436Z,103857.16
2023-02-08T06:49:28.201Z,103860.56
2023-02-08T06:52:15.074Z,103862.56
2023-02-08T06:55:01.842Z,103864.44
2023-02-08T06:57:48.771Z,103866.94
2023-02-08T07:00:39.431Z,103865.66
2023-02-08T07:03:26.180Z,103868.41
2023-02-08T07:06:14.208Z,103858.91
2023-02-08T07:09:02.950Z,103818.59
2023-02-08T07:11:50.874Z,103863.75
2023-02-08T07:14:40.975Z,103811.59
2023-02-08T07:17:31.463Z,103867.75
2023-02-08T07:20:20.563Z,103865.06
2023-02-08T07:23:08.370Z,103865.78
2023-02-08T07:26:00.829Z,103870.09
2023-02-08T07:28:48.704Z,103868.69
2023-02-08T07:31:36.989Z,103872.00
2023-02-08T07:34:26.674Z,103880.31
2023-02-08T07:37:19.545Z,103880.13
2023-02-08T07:40:07.100Z,103881.22
2023-02-08T07:42:53.743Z,103881.25
2023-02-08T07:45:50.618Z,103878.44
2023-02-08T07:48:40.100Z,103884.63
2023-02-08T07:51:28.432Z,103885.25
2023-02-08T07:54:15.103Z,103887.94
2023-02-08T07:57:03.673Z,103885.94
2023-02-08T07:59:51.289Z,103892.41
2023-02-08T08:02:38.634Z,103897.25
2023-02-08T08:05:25.350Z,103898.00
2023-02-08T08:08:14.151Z,103901.84
2023-02-08T08:11:03.436Z,103906.78
2023-02-08T08:13:50.920Z,103899.69
2023-02-08T08:16:37.720Z,103897.66
2023-02-08T08:19:24.497Z,103895.78
2023-02-08T08:22:11.089Z,103897.84
2023-02-08T08:25:00.145Z,103900.66
2023-02-08T08:27:47.050Z,103896.88
2023-02-08T08:30:33.778Z,103893.72
2023-02-08T08:33:21.247Z,103891.16
2023-02-08T08:36:08.873Z,103893.47
2023-02-08T08:38:55.775Z,103886.75
2023-02-08T08:41:44.106Z,103886.25
2023-02-08T08:44:30.901Z,103881.66
2023-02-08T08:47:17.861Z,103881.53
2023-02-08T08:50:04.886Z,103882.81
2023-02-08T08:52:51.331Z,103886.59
2023-02-08T08:55:38.116Z,103883.47
2023-02-08T08:58:26.505Z,103886.50
2023-02-08T09:01:14.250Z,103878.97
2023-02-08T09:04:01.325Z,103875.97
2023-02-08T09:06:47.841Z,103875.06
2023-02-08T09:09:34.645Z,103876.28
2023-02-08T09:12:21.267Z,103874.25
2023-02-08T09:15:10.067Z,103879.63
2023-02-08T09:17:57.116Z,103884.88
2023-02-08T09:20:44.356Z,103843.28
2023-02-08T09:23:31.320Z,103900.84
2023-02-08T09:26:20.740Z,103890.50
2023-02-08T09:29:07.815Z,103891.63
2023-02-08T09:31:55.660Z,103893.56
2023-02-08T09:34:42.311Z,103890.84
2023-02-08T09:37:29.437Z,103886.19
2023-02-08T09:40:24.104Z,103880.03
2023-02-08T09:43:14.239Z,103866.94
2023-02-08T09:46:06.577Z,103878.50
2023-02-08T09:48:59.462Z,103868.50
2023-02-08T09:51:52.471Z,103866.16
2023-02-08T09:54:44.680Z,103854.81
2023-02-08T09:57:36.083Z,103856.47
2023-02-08T10:00:29.093Z,103859.22
2023-02-08T10:03:26.738Z,103855.56
2023-02-08T10:06:17.476Z,103849.03
2023-02-08T10:09:07.467Z,103832.66
2023-02-08T10:12:07.078Z,103836.03
2023-02-08T10:15:03.065Z,103826.34
2023-02-08T10:18:05.658Z,103820.09
2023-02-08T10:21:04.924Z,103818.38
2023-02-08T10:24:15.041Z,103811.22
2023-02-08T10:27:11.806Z,103806.72
2023-02-08T10:30:12.033Z,103806.28
2023-02-08T10:33:02.497Z,103809.16
2023-02-08T10:35:51.750Z,103813.19
2023-02-08T10:38:46.770Z,103810.50
2023-02-08T10:41:38.181Z,103818.81
2023-02-08T10:44:32.181Z,103806.16
2023-02-08T10:47:26.745Z,103804.72
2023-02-08T10:50:21.966Z,103802.91
2023-02-08T10:53:15.921Z,103792.16
2023-02-08T10:56:02.697Z,103791.88
2023-02-08T10:58:50.946Z,103790.44
2023-02-08T11:01:37.567Z,103797.88
2023-02-08T11:04:24.433Z,103798.47
2023-02-08T11:07:22.286Z,103784.91
2023-02-08T11:10:24.782Z,103783.78
2023-02-08T11:13:19.188Z,103785.44
2023-02-08T11:16:08.988Z,103786.16
2023-02-08T11:18:58.279Z,103783.41
2023-02-08T11:21:51.998Z,103778.16
2023-02-08T11:24:41.620Z,103775.59
2023-02-08T11:27:34.678Z,103776.22
2023-02-08T11:30:24.437Z,103779.56
2023-02-08T11:33:23.397Z,103772.88
2023-02-08T11:36:14.650Z,103774.38
2023-02-08T11:39:03.564Z,103777.06
2023-02-08T11:41:52.796Z,103775.22
2023-02-08T11:44:45.938Z,103776.38
2023-02-08T11:47:35.768Z,103781.56
2023-02-08T11:50:27.828Z,103781.56
2023-02-08T11:53:27.829Z,103784.69
2023-02-08T11:56:20.898Z,103795.09
2023-02-08T11:59:20.340Z,103782.78
2023-02-08T12:02:28.453Z,103784.66
2023-02-08T12:05:19.017Z,103774.53
2023-02-08T12:08:14.866Z,103780.34
2023-02-08T12:11:13.888Z,103761.69
2023-02-08T12:14:28.372Z,103779.00
2023-02-08T12:17:47.649Z,103779.22
2023-02-08T12:20:42.296Z,103766.03
2023-02-08T12:23:49.688Z,103769.59
2023-02-08T12:27:02.578Z,103766.38
2023-02-08T12:29:56.897Z,103769.31
2023-02-08T12:32:58.298Z,103767.34
2023-02-08T12:36:05.581Z,103764.53
2023-02-08T12:39:48.167Z,103758.63
2023-02-08T12:42:55.823Z,103757.25
2023-02-08T12:46:01.377Z,103759.34
2023-02-08T12:49:08.254Z,103757.78
2023-02-08T12:52:04.136Z,103753.34
2023-02-08T12:54:58.197Z,103752.44
2023-02-08T12:57:49.119Z,103744.22
2023-02-08T13:00:42.355Z,103751.09
2023-02-08T13:03:43.119Z,103743.72
2023-02-08T13:06:37.374Z,103738.13
2023-02-08T13:09:40.258Z,103733.59
2023-02-08T13:12:32.125Z,103738.50
2023-02-08T13:15:42.223Z,103742.78
2023-02-08T13:18:34.250Z,103730.47
2023-02-08T13:21:23.956Z,103725.94
2023-02-08T13:24:27.678Z,103669.81
2023-02-08T13:27:17.885Z,103710.38
2023-02-08T13:30:07.441Z,103704.50
2023-02-08T13:32:56.463Z,103708.66
2023-02-08T13:35:43.540Z,103714.63
2023-02-08T13:38:32.954Z,103710.72
2023-02-08T13:41:21.848Z,103707.03
2023-02-08T13:44:17.907Z,103698.53
2023-02-08T13:47:07.384Z,103704.09
2023-02-08T13:49:57.151Z,103708.69
2023-02-08T13:52:53.953Z,103687.31
2023-02-08T13:55:56.066Z,103697.16
2023-02-08T13:59:04.690Z,103693.28
2023-02-08T14:02:23.683Z,103688.28
2023-02-08T14:05:35.707Z,103692.47
2023-02-08T14:08:25.812Z,103686.91
2023-02-08T14:11:18.157Z,103688.78
2023-02-08T14:14:14.724Z,103688.84
2023-02-08T14:17:19.208Z,103691.38
2023-02-08T14:20:09.049Z,103690.13
2023-02-08T14:22:58.125Z,103686.13
2023-02-08T14:25:48.242Z,103677.31
2023-02-08T14:28:38.594Z,103672.59
2023-02-08T14:31:38.255Z,103585.53
2023-02-08T14:34:34.897Z,103645.97
2023-02-08T14:37:31.360Z,103639.59
2023-02-08T14:40:50.656Z,103653.56
2023-02-08T14:43:38.352Z,103659.53
2023-02-08T14:46:45.654Z,103659.28
2023-02-08T14:49:39.226Z,103651.66
2023-02-08T14:52:27.297Z,103654.47
2023-02-08T14:55:20.486Z,103656.03
2023-02-08T14:58:08.580Z,103653.16
2023-02-08T15:00:57.380Z,103652.97
2023-02-08T15:03:46.348Z,103651.09
2023-02-08T15:07:01.723Z,103641.78
2023-02-08T15:09:48.961Z,103645.66
2023-02-08T15:12:39.674Z,103638.44
2023-02-08T15:15:29.727Z,103622.63
2023-02-08T15:18:21.146Z,103618.41
2023-02-08T15:21:16.618Z,103623.47
2023-02-08T15:24:06.034Z,103623.13
2023-02-08T15:26:55.131Z,103600.75
2023-02-08T15:29:45.673Z,103613.41
2023-02-08T15:32:32.592Z,103615.00
2023-02-08T15:35:23.084Z,103607.78
2023-02-08T15:38:18.361Z,103604.06
2023-02-08T15:41:08.082Z,103602.88
2023-02-08T15:44:04.291Z,103554.94
2023-02-08T15:49:43.694Z,103590.72
2023-02-08T15:52:32.891Z,103584.53
2023-02-08T15:55:19.978Z,103584.06
2023-02-08T15:58:09.670Z,103586.72
2023-02-08T16:00:58.501Z,103580.88
2023-02-08T16:03:50.518Z,103576.34
2023-02-08T16:06:40.386Z,103578.50
2023-02-08T16:09:30.346Z,103583.66
2023-02-08T16:12:22.134Z,103580.50
2023-02-08T16:15:38.704Z,103574.00
2023-02-08T16:18:39.340Z,103569.16
2023-02-08T16:21:35.962Z,103582.00
2023-02-08T16:24:26.607Z,103572.91
2023-02-08T16:27:25.596Z,103568.22
2023-02-08T16:30:19.227Z,103571.66
2023-02-08T16:33:10.158Z,103564.31
2023-02-08T16:36:01.975Z,103563.03
2023-02-08T16:39:28.152Z,103566.03
2023-02-08T16:42:33.920Z,103526.75
2023-02-08T16:45:22.728Z,103555.72
2023-02-08T16:48:28.874Z,103540.66
2023-02-08T16:51:19.100Z,103554.97
2023-02-08T16:54:08.103Z,103546.69
2023-02-08T16:57:00.054Z,103568.34
2023-02-08T16:59:46.816Z,103561.56
2023-02-08T17:02:33.631Z,103558.72
2023-02-08T17:05:22.508Z,103553.25
2023-02-08T17:08:14.165Z,103559.28
2023-02-08T17:11:02.434Z,103564.19
2023-02-08T17:13:49.008Z,103559.13
2023-02-08T17:16:37.045Z,103550.34
2023-02-08T17:19:23.605Z,103556.47
2023-02-08T17:22:10.285Z,103549.50
2023-02-08T17:24:57.107Z,103546.72
2023-02-08T17:27:45.392Z,103550.00
2023-02-08T17:30:34.053Z,103553.75
2023-02-08T17:33:20.759Z,103541.72
2023-02-08T17:36:09.529Z,103535.06
2023-02-08T17:38:56.113Z,103554.56
2023-02-08T17:41:42.881Z,103546.69
2023-02-08T17:44:30.900Z,103552.59
2023-02-08T17:47:17.823Z,103545.16
2023-02-08T17:50:04.686Z,103543.38
2023-02-08T17:52:52.597Z,103541.00
2023-02-08T17:55:45.445Z,103533.34
2023-02-08T17:58:32.968Z,103538.25
2023-02-08T18:01:23.699Z,103536.13
2023-02-08T18:04:11.647Z,103541.34
2023-02-08T18:06:58.166Z,103531.41
2023-02-08T18:09:44.879Z,103528.06
2023-02-08T18:12:31.713Z,103525.66
2023-02-08T18:15:20.914Z,103519.59
2023-02-08T18:18:09.083Z,103530.34
2023-02-08T18:20:56.756Z,103517.63
2023-02-08T18:23:44.144Z,103513.88
2023-02-08T18:26:33.645Z,103504.06
2023-02-08T18:29:20.451Z,103507.13
2023-02-08T18:32:07.404Z,103509.06
2023-02-08T18:34:56.904Z,103501.88
2023-02-08T18:37:44.368Z,103495.88
2023-02-08T18:40:32.274Z,103502.78
2023-02-08T18:43:19.720Z,103495.50
2023-02-08T18:46:09.994Z,103486.75
2023-02-08T18:48:56.756Z,103455.25
2023-02-08T18:51:45.888Z,103457.84
2023-02-08T18:54:32.342Z,103475.22
2023-02-08T18:57:19.417Z,103478.22
2023-02-08T19:00:06.571Z,103472.13
2023-02-08T19:02:53.111Z,103470.13
2023-02-08T19:05:41.836Z,103455.94
2023-02-08T19:08:30.177Z,103457.19
2023-02-08T19:11:19.884Z,103453.19
2023-02-08T19:14:09.094Z,103455.41
2023-02-08T19:16:55.964Z,103443.31
2023-02-08T19:19:44.602Z,103442.78
2023-02-08T19:22:31.124Z,103449.47
2023-02-08T19:25:20.958Z,103444.69
2023-02-08T19:28:08.202Z,103441.19
2023-02-08T19:31:03.714Z,103442.28
2023-02-08T19:33:53.611Z,103428.19
2023-02-08T19:36:44.169Z,103420.63
2023-02-08T19:39:31.013Z,103421.22
2023-02-08T19:42:19.635Z,103423.00
2023-02-08T19:45:06.814Z,103423.09
2023-02-08T19:47:55.069Z,103419.19
2023-02-08T19:50:42.927Z,103410.97
2023-02-08T19:53:30.517Z,103422.72
2023-02-08T19:56:19.293Z,103426.47
2023-02-08T19:59:09.961Z,103393.78
2023-02-08T20:01:56.979Z,103420.00
2023-02-08T20:04:43.619Z,103322.81
2023-02-08T20:07:30.753Z,103409.53
2023-02-08T20:10:17.575Z,103420.66
2023-02-08T20:13:04.455Z,103423.78
2023-02-08T20:15:59.745Z,103422.41
2023-02-08T20:18:46.410Z,103422.22
2023-02-08T20:21:39.642Z,103419.03
2023-02-08T20:24:26.167Z,103406.22
2023-02-08T20:27:13.150Z,103410.88
2023-02-08T20:30:00.062Z,103408.19
2023-02-08T20:32:48.433Z,103400.44
2023-02-08T20:35:37.097Z,103371.88
2023-02-08T20:38:23.770Z,103385.31
2023-02-08T20:41:13.302Z,103388.84
2023-02-08T20:43:59.781Z,103389.81
2023-02-08T20:46:46.764Z,103385.75
2023-02-08T20:49:34.834Z,103382.25
2023-02-08T20:52:21.676Z,103373.00
2023-02-08T20:55:09.461Z,103376.66
2023-02-08T20:57:56.330Z,103367.63
2023-02-08T21:00:44.982Z,103366.06
2023-02-08T21:03:32.519Z,103365.38
2023-02-08T21:06:23.550Z,103364.44
2023-02-08T21:09:13.384Z,103358.09
2023-02-08T21:12:00.012Z,103358.53
2023-02-08T21:14:46.856Z,103354.19
2023-02-08T21:17:33.621Z,103362.63
2023-02-08T21:20:20.619Z,103349.34
2023-02-08T21:23:08.853Z,103345.31
2023-02-08T21:25:55.394Z,103342.41
2023-02-08T21:28:43.362Z,103337.56
2023-02-08T21:31:30.439Z,103325.94
2023-02-08T21:34:19.465Z,103323.31
2023-02-08T21:37:06.234Z,103316.16
2023-02-08T21:39:54.348Z,103317.72
2023-02-08T21:42:41.098Z,103309.66
2023-02-08T21:45:31.345Z,103309.38
2023-02-08T21:48:20.526Z,103310.19
2023-02-08T21:51:24.728Z,103309.16
2023-02-08T21:54:33.954Z,103303.25
2023-02-08T21:57:26.609Z,103297.00
2023-02-08T22:00:25.124Z,103292.16
2023-02-08T22:03:13.429Z,103293.50
2023-02-08T22:06:23.232Z,103287.16
2023-02-08T22:09:12.165Z,103278.34
2023-02-08T22:12:02.189Z,103272.38
2023-02-08T22:14:53.974Z,103265.66
2023-02-08T22:17:49.105Z,103265.41
2023-02-08T22:20:38.453Z,103263.00
2023-02-08T22:23:27.568Z,103256.59
2023-02-08T22:26:15.601Z,103256.72
2023-02-08T22:29:04.680Z,103256.66
2023-02-08T22:31:53.593Z,103253.81
2023-02-08T22:34:41.876Z,103255.69
2023-02-08T22:37:30.449Z,103256.91
2023-02-08T22:40:19.341Z,103256.13
2023-02-08T22:43:08.570Z,103254.72
2023-02-08T22:46:01.409Z,103246.56
2023-02-08T22:48:51.595Z,103245.84
2023-02-08T22:51:39.467Z,103244.81
2023-02-08T22:54:28.191Z,103246.69
2023-02-08T22:57:14.735Z,103240.25
2023-02-08T23:00:01.862Z,103229.69
2023-02-08T23:02:48.478Z,103225.78
2023-02-08T23:05:42.106Z,103243.91
2023-02-08T23:08:28.975Z,103244.13
2023-02-08T23:11:16.559Z,103240.09
2023-02-08T23:14:04.133Z,103248.09
2023-02-08T23:16:51.106Z,103240.03
2023-02-08T23:19:38.219Z,103243.38
2023-02-08T23:22:26.741Z,103245.09
2023-02-08T23:25:13.285Z,103243.53
2023-02-08T23:28:00.255Z,103241.84
2023-02-08T23:30:48.536Z,103241.09
2023-02-08T23:33:36.255Z,103238.47
2023-02-08T23:36:24.474Z,103190.03
2023-02-08T23:39:12.668Z,103239.66
2023-02-08T23:41:59.522Z,103234.75
2023-02-08T23:44:46.394Z,103228.94
2023-02-08T23:47:33.483Z,103222.31
2023-02-08T23:50:20.311Z,103220.13
2023-02-08T23:53:09.313Z,103217.59
2023-02-08T23:56:06.549Z,103221.41
2023-02-08T23:58:56.080Z,103194.00
